createdAt,value
2019-04-11T00:00:50.457Z,2.20
2019-04-11T00:03:21.635Z,2.20
2019-04-11T00:05:52.877Z,2.20
2019-04-11T00:08:23.136Z,2.20
2019-04-11T00:10:53.551Z,2.20
2019-04-11T00:13:26.913Z,2.10
2019-04-11T00:15:55.156Z,2.10
2019-04-11T00:18:25.042Z,2.10
2019-04-11T00:20:56.065Z,2.10
2019-04-11T00:23:26.262Z,2.10
2019-04-11T00:25:56.290Z,2.10
2019-04-11T00:28:26.236Z,2.00
2019-04-11T00:30:56.678Z,2.00
2019-04-11T00:33:26.824Z,1.90
2019-04-11T00:35:57.727Z,1.90
2019-04-11T00:38:28.005Z,1.90
2019-04-11T00:40:58.008Z,1.90
2019-04-11T00:43:33.934Z,1.90
2019-04-11T00:46:00.166Z,1.90
2019-04-11T00:48:31.222Z,1.80
2019-04-11T00:51:01.446Z,1.80
2019-04-11T00:57:13.156Z,1.70
2019-04-11T00:59:42.977Z,1.70
2019-04-11T01:02:13.504Z,1.70
2019-04-11T01:04:43.586Z,1.70
2019-04-11T01:07:14.495Z,1.70
2019-04-11T01:09:44.595Z,1.70
2019-04-11T01:12:14.596Z,1.60
2019-04-11T01:14:44.346Z,1.70
2019-04-11T01:17:14.921Z,1.60
2019-04-11T01:19:45.306Z,1.60
2019-04-11T01:22:16.155Z,1.60
2019-04-11T01:24:46.262Z,1.60
2019-04-11T01:27:16.346Z,1.50
2019-04-11T01:29:47.399Z,1.50
2019-04-11T01:32:18.042Z,1.50
2019-04-11T01:34:48.755Z,1.50
2019-04-11T01:37:19.704Z,1.50
2019-04-11T01:39:57.214Z,1.50
2019-04-11T01:42:27.196Z,1.40
2019-04-11T01:44:57.422Z,1.50
2019-04-11T01:47:44.900Z,1.40
2019-04-11T01:50:17.444Z,1.40
2019-04-11T01:52:47.313Z,1.40
2019-04-11T01:55:17.185Z,1.40
2019-04-11T01:57:47.006Z,1.30
2019-04-11T02:00:36.798Z,1.30
2019-04-11T02:03:08.843Z,1.30
2019-04-11T02:05:39.192Z,1.30
2019-04-11T02:15:23.976Z,1.30
2019-04-11T02:17:55.009Z,1.20
2019-04-11T02:20:25.056Z,1.20
2019-04-11T02:23:14.985Z,1.20
2019-04-11T02:26:07.144Z,1.20
2019-04-11T02:28:37.149Z,1.10
2019-04-11T02:31:09.466Z,1.10
2019-04-11T02:33:38.999Z,1.10
2019-04-11T02:36:10.015Z,1.10
2019-04-11T02:38:41.326Z,1.10
2019-04-11T02:41:12.520Z,1.10
2019-04-11T02:43:44.424Z,1.00
2019-04-11T02:46:23.301Z,1.00
2019-04-11T02:48:46.307Z,1.00
2019-04-11T02:51:16.185Z,1.00
2019-04-11T02:53:47.276Z,0.90
2019-04-11T02:56:19.286Z,1.00
2019-04-11T02:58:50.293Z,0.90
2019-04-11T03:01:21.947Z,0.90
2019-04-11T03:03:53.707Z,0.90
2019-04-11T03:06:25.680Z,0.90
2019-04-11T03:08:57.338Z,0.90
2019-04-11T03:11:27.563Z,0.90
2019-04-11T03:14:00.300Z,0.80
2019-04-11T03:16:43.933Z,0.80
2019-04-11T03:19:18.055Z,0.80
2019-04-11T03:21:39.203Z,0.80
2019-04-11T03:24:06.889Z,0.80
2019-04-11T03:26:37.764Z,0.80
2019-04-11T03:29:09.134Z,0.80
2019-04-11T03:32:17.463Z,0.80
2019-04-11T03:34:58.803Z,0.80
2019-04-11T03:37:19.239Z,0.70
2019-04-11T03:39:41.222Z,0.70
2019-04-11T03:42:07.561Z,0.70
2019-04-11T03:44:25.473Z,0.70
2019-04-11T03:47:08.331Z,0.60
2019-04-11T03:49:32.806Z,0.60
2019-04-11T03:51:55.640Z,0.60
2019-04-11T03:54:25.864Z,0.60
2019-04-11T03:56:57.201Z,0.60
2019-04-11T03:59:27.110Z,0.50
2019-04-11T04:01:59.704Z,0.50
2019-04-11T04:04:29.277Z,0.50
2019-04-11T04:06:59.388Z,0.50
2019-04-11T04:09:29.553Z,0.50
2019-04-11T04:12:00.303Z,0.50
2019-04-11T04:14:39.170Z,0.50
2019-04-11T04:17:35.846Z,0.50
2019-04-11T04:20:24.803Z,0.50
2019-04-11T04:23:09.556Z,0.50
2019-04-11T04:25:42.739Z,0.40
2019-04-11T04:28:11.776Z,0.40
2019-04-11T04:30:43.254Z,0.40
2019-04-11T04:33:14.442Z,0.40
2019-04-11T04:35:44.954Z,0.40
2019-04-11T04:38:15.652Z,0.40
2019-04-11T04:41:00.763Z,0.40
2019-04-11T04:43:25.133Z,0.40
2019-04-11T04:46:15.050Z,0.40
2019-04-11T04:48:33.810Z,0.40
2019-04-11T04:51:08.501Z,0.40
2019-04-11T04:53:35.467Z,0.40
2019-04-11T04:56:06.744Z,0.40
2019-04-11T04:58:37.837Z,0.40
2019-04-11T05:01:07.994Z,0.40
2019-04-11T05:03:40.279Z,0.40
2019-04-11T05:06:10.171Z,0.50
2019-04-11T05:08:40.995Z,0.50
2019-04-11T05:11:11.389Z,0.50
2019-04-11T05:13:44.610Z,0.50
2019-04-11T05:16:17.294Z,0.50
2019-04-11T05:18:44.072Z,0.50
2019-04-11T05:21:13.872Z,0.50
2019-04-11T05:23:43.826Z,0.60
2019-04-11T05:26:13.845Z,0.60
2019-04-11T05:28:43.732Z,0.70
2019-04-11T05:31:14.381Z,0.70
2019-04-11T05:33:45.646Z,0.70
2019-04-11T05:36:16.567Z,0.80
2019-04-11T05:38:46.552Z,0.80
2019-04-11T05:41:17.348Z,0.90
2019-04-11T05:43:47.819Z,0.90
2019-04-11T05:46:35.419Z,0.90
2019-04-11T05:49:39.779Z,0.90
2019-04-11T05:52:10.282Z,1.00
2019-04-11T05:54:49.057Z,1.10
2019-04-11T05:57:22.694Z,1.10
2019-04-11T05:59:53.465Z,1.10
2019-04-11T06:02:41.603Z,1.20
2019-04-11T06:05:31.244Z,1.20
2019-04-11T06:08:02.287Z,1.30
2019-04-11T06:10:54.679Z,1.30
2019-04-11T06:13:42.674Z,1.50
2019-04-11T06:16:13.056Z,1.50
2019-04-11T06:19:00.546Z,1.50
2019-04-11T06:21:37.736Z,1.60
2019-04-11T06:24:25.921Z,1.60
2019-04-11T06:27:17.563Z,1.70
2019-04-11T06:30:07.500Z,1.80
2019-04-11T06:33:00.307Z,1.90
2019-04-11T06:35:39.881Z,1.90
2019-04-11T06:38:30.339Z,2.00
2019-04-11T06:41:10.351Z,2.10
2019-04-11T06:43:56.626Z,2.20
2019-04-11T06:46:53.883Z,2.20
2019-04-11T06:49:30.835Z,2.30
2019-04-11T06:52:05.256Z,2.40
2019-04-11T06:58:21.454Z,2.50
2019-04-11T07:00:57.949Z,2.60
2019-04-11T07:03:38.452Z,2.70
2019-04-11T07:06:17.491Z,2.80
2019-04-11T07:09:14.562Z,2.90
2019-04-11T07:11:52.563Z,3.00
2019-04-11T07:14:29.661Z,3.10
2019-04-11T07:17:17.331Z,3.10
2019-04-11T07:20:22.236Z,3.20
2019-04-11T07:23:17.313Z,3.30
2019-04-11T07:26:10.439Z,3.50
2019-04-11T07:29:02.439Z,3.70
2019-04-11T07:31:58.133Z,3.80
2019-04-11T07:34:50.141Z,3.90
2019-04-11T07:37:44.598Z,4.00
2019-04-11T07:43:56.537Z,4.30
2019-04-11T07:46:44.533Z,4.40
2019-04-11T07:49:15.817Z,4.50
2019-04-11T07:51:53.237Z,4.70
2019-04-11T07:54:25.927Z,4.70
2019-04-11T07:57:01.626Z,4.90
2019-04-11T07:59:51.383Z,5.00
2019-04-11T08:02:39.932Z,5.10
2019-04-11T08:05:32.334Z,5.30
2019-04-11T08:08:21.418Z,5.40
2019-04-11T08:11:00.316Z,5.50
2019-04-11T08:13:39.507Z,5.60
2019-04-11T08:16:29.005Z,5.80
2019-04-11T08:19:24.675Z,5.90
2019-04-11T08:22:13.411Z,6.00
2019-04-11T08:24:56.587Z,6.00
2019-04-11T08:27:29.515Z,6.20
2019-04-11T08:30:00.344Z,6.30
2019-04-11T08:32:46.853Z,6.40
2019-04-11T08:35:53.679Z,6.60
2019-04-11T08:43:04.672Z,6.80
2019-04-11T08:45:36.342Z,7.00
2019-04-11T08:48:06.830Z,7.20
2019-04-11T08:50:40.806Z,7.20
2019-04-11T08:53:37.835Z,7.40
2019-04-11T08:56:10.498Z,7.50
2019-04-11T08:59:30.202Z,7.50
2019-04-11T09:02:00.688Z,7.60
2019-04-11T09:04:48.323Z,7.70
2019-04-11T09:07:22.974Z,7.80
2019-04-11T09:10:14.137Z,8.00
2019-04-11T09:12:58.554Z,8.00
2019-04-11T09:15:46.280Z,8.10
2019-04-11T09:18:17.671Z,8.20
2019-04-11T09:21:05.702Z,8.30
2019-04-11T09:23:52.223Z,8.10
2019-04-11T09:26:41.066Z,8.20
2019-04-11T09:46:27.275Z,8.80
2019-04-11T09:49:20.475Z,9.00
2019-04-11T09:52:16.283Z,9.20
2019-04-11T09:55:08.560Z,9.30
2019-04-11T09:57:52.581Z,9.30
2019-04-11T10:00:41.558Z,9.20
2019-04-11T10:03:19.653Z,9.30
2019-04-11T10:06:00.067Z,9.40
2019-04-11T10:08:43.560Z,9.80
2019-04-11T10:11:32.380Z,10.10
2019-04-11T10:14:13.491Z,10.10
2019-04-11T10:17:01.267Z,10.10
2019-04-11T10:19:38.251Z,10.20
2019-04-11T10:22:27.077Z,10.40
2019-04-11T10:25:23.160Z,10.20
2019-04-11T10:28:21.692Z,10.60
2019-04-11T10:31:20.447Z,11.00
2019-04-11T10:34:29.988Z,10.60
2019-04-11T10:37:15.896Z,10.20
2019-04-11T10:40:05.884Z,9.90
2019-04-11T10:42:39.098Z,10.10
2019-04-11T10:45:34.450Z,10.10
2019-04-11T10:48:07.982Z,10.00
2019-04-11T10:51:02.052Z,9.90
2019-04-11T10:53:33.277Z,10.00
2019-04-11T10:56:18.682Z,10.20
2019-04-11T10:59:01.832Z,10.20
2019-04-11T11:01:50.506Z,10.30
2019-04-11T11:04:30.356Z,10.30
2019-04-11T11:07:04.552Z,10.20
2019-04-11T11:09:46.198Z,10.40
2019-04-11T11:12:30.261Z,10.50
2019-04-11T11:15:11.521Z,10.70
2019-04-11T11:18:32.011Z,10.70
2019-04-11T11:21:09.370Z,11.10
2019-04-11T11:30:27.525Z,11.00
2019-04-11T11:32:58.142Z,11.30
2019-04-11T11:35:45.923Z,11.70
2019-04-11T11:38:21.940Z,11.50
2019-04-11T11:41:09.453Z,11.50
2019-04-11T11:43:39.202Z,11.60
2019-04-11T11:46:30.961Z,11.40
2019-04-11T11:49:23.516Z,11.10
2019-04-11T11:52:08.929Z,11.30
2019-04-11T11:54:44.000Z,11.70
2019-04-11T11:57:28.759Z,12.60
2019-04-11T12:00:09.361Z,13.40
2019-04-11T12:02:46.467Z,13.00
2019-04-11T12:05:26.309Z,12.50
2019-04-11T12:08:18.224Z,12.00
2019-04-11T12:10:53.908Z,11.90
2019-04-11T12:13:45.628Z,11.70
2019-04-11T12:16:21.370Z,11.60
2019-04-11T12:19:09.200Z,11.70
2019-04-11T12:21:39.141Z,12.30
2019-04-11T12:24:30.712Z,12.90
2019-04-11T12:27:18.542Z,12.80
2019-04-11T12:30:08.668Z,12.50
2019-04-11T12:32:42.493Z,12.40
2019-04-11T12:35:19.976Z,12.20
2019-04-11T12:37:55.869Z,11.90
2019-04-11T12:40:43.745Z,11.70
2019-04-11T12:43:13.669Z,11.80
2019-04-11T12:46:05.293Z,12.00
2019-04-11T12:48:40.670Z,12.30
2019-04-11T12:51:38.763Z,12.30
2019-04-11T12:54:19.171Z,12.10
2019-04-11T12:57:11.047Z,12.10
2019-04-11T12:59:40.936Z,12.40
2019-04-11T13:02:31.201Z,12.00
2019-04-11T13:05:01.489Z,11.90
2019-04-11T13:08:02.315Z,11.80
2019-04-11T13:10:35.238Z,11.70
2019-04-11T13:13:22.571Z,11.70
2019-04-11T13:16:12.398Z,11.50
2019-04-11T13:19:04.932Z,11.30
2019-04-11T13:22:03.419Z,11.20
2019-04-11T13:24:50.545Z,11.10
2019-04-11T13:27:42.104Z,11.10
2019-04-11T13:30:31.126Z,11.70
2019-04-11T13:33:04.454Z,12.70
2019-04-11T13:36:05.412Z,13.60
2019-04-11T13:38:42.724Z,13.80
2019-04-11T13:41:29.866Z,14.30
2019-04-11T13:44:09.994Z,14.40
2019-04-11T13:46:58.828Z,13.50
2019-04-11T13:49:47.378Z,12.80
2019-04-11T13:52:36.159Z,12.10
2019-04-11T13:55:28.208Z,11.80
2019-04-11T13:58:17.014Z,11.90
2019-04-11T14:00:48.491Z,12.70
2019-04-11T14:03:49.408Z,13.30
2019-04-11T14:06:40.035Z,13.70
2019-04-11T14:09:30.869Z,14.00
2019-04-11T14:12:05.059Z,14.40
2019-04-11T14:14:52.488Z,13.70
2019-04-11T14:17:44.304Z,12.70
2019-04-11T14:20:29.070Z,12.30
2019-04-11T14:23:13.789Z,12.00
2019-04-11T14:26:02.320Z,11.60
2019-04-11T14:28:48.072Z,11.70
2019-04-11T14:31:35.568Z,12.30
2019-04-11T14:34:11.349Z,12.70
2019-04-11T14:37:09.334Z,13.10
2019-04-11T14:43:35.614Z,13.90
2019-04-11T14:46:24.379Z,12.90
2019-04-11T14:48:56.754Z,12.40
2019-04-11T14:51:54.650Z,12.00
2019-04-11T14:54:32.436Z,11.60
2019-04-11T14:57:27.285Z,11.40
2019-04-11T15:00:18.848Z,11.70
2019-04-11T15:03:13.653Z,12.20
2019-04-11T15:05:58.412Z,12.80
2019-04-11T15:08:38.706Z,13.30
2019-04-11T15:11:20.132Z,13.50
2019-04-11T15:13:52.394Z,13.20
2019-04-11T15:16:41.205Z,13.00
2019-04-11T15:19:11.084Z,12.70
2019-04-11T15:22:18.090Z,12.50
2019-04-11T15:24:49.200Z,12.50
2019-04-11T15:27:38.567Z,12.20
2019-04-11T15:30:11.470Z,11.90
2019-04-11T15:33:09.464Z,11.80
2019-04-11T15:35:39.281Z,11.70
2019-04-11T15:38:36.892Z,11.50
2019-04-11T15:45:13.548Z,11.50
2019-04-11T15:47:51.201Z,11.50
2019-04-11T15:50:38.608Z,11.60
2019-04-11T15:53:08.355Z,11.50
2019-04-11T15:55:46.202Z,11.40
2019-04-11T15:58:16.201Z,11.30
2019-04-11T16:00:53.933Z,11.20
2019-04-11T16:03:25.899Z,11.00
2019-04-11T16:06:17.345Z,10.90
2019-04-11T16:08:55.948Z,10.60
2019-04-11T16:11:53.556Z,10.30
2019-04-11T16:14:41.560Z,10.20
2019-04-11T16:17:36.544Z,10.10
2019-04-11T16:20:13.031Z,10.10
2019-04-11T16:23:10.869Z,10.30
2019-04-11T16:29:23.775Z,11.00
2019-04-11T16:31:54.798Z,11.40
2019-04-11T16:34:33.999Z,11.70
2019-04-11T16:37:06.196Z,12.00
2019-04-11T16:39:55.377Z,12.30
2019-04-11T16:42:46.805Z,12.50
2019-04-11T16:45:33.769Z,12.50
2019-04-11T16:48:02.783Z,11.90
2019-04-11T16:50:33.775Z,11.50
2019-04-11T16:53:03.794Z,11.40
2019-04-11T16:55:33.670Z,11.10
2019-04-11T16:58:03.603Z,10.90
2019-04-11T17:00:33.447Z,10.60
2019-04-11T17:03:03.303Z,10.40
2019-04-11T17:05:33.367Z,10.30
2019-04-11T17:08:13.836Z,10.40
2019-04-11T17:11:18.987Z,10.40
2019-04-11T17:13:49.209Z,10.40
2019-04-11T17:16:20.556Z,10.30
2019-04-11T17:18:50.465Z,10.40
2019-04-11T17:21:22.995Z,10.50
2019-04-11T17:23:51.826Z,10.60
2019-04-11T17:26:23.176Z,10.50
2019-04-11T17:28:54.498Z,10.40
2019-04-11T17:31:26.002Z,10.20
2019-04-11T17:33:56.739Z,10.10
2019-04-11T17:36:28.059Z,9.90
2019-04-11T17:38:57.936Z,9.80
2019-04-11T17:41:27.795Z,9.80
2019-04-11T17:43:57.788Z,9.70
2019-04-11T17:46:27.635Z,9.70
2019-04-11T17:48:57.570Z,9.80
2019-04-11T17:51:27.372Z,9.80
2019-04-11T17:53:57.426Z,9.80
2019-04-11T17:56:27.337Z,9.70
2019-04-11T17:58:58.224Z,9.60
2019-04-11T18:01:29.046Z,9.50
2019-04-11T18:03:59.035Z,9.50
2019-04-11T18:06:29.018Z,9.50
2019-04-11T18:08:59.371Z,9.40
2019-04-11T18:11:29.189Z,9.40
2019-04-11T18:14:00.973Z,9.30
2019-04-11T18:16:31.702Z,9.20
2019-04-11T18:19:05.842Z,9.20
2019-04-11T18:21:34.838Z,9.10
2019-04-11T18:24:06.162Z,9.10
2019-04-11T18:26:36.054Z,9.10
2019-04-11T18:29:05.958Z,9.10
2019-04-11T18:31:35.735Z,9.00
2019-04-11T18:34:05.779Z,9.00
2019-04-11T18:36:37.303Z,8.90
2019-04-11T18:39:08.553Z,8.90
2019-04-11T18:44:55.888Z,8.90
2019-04-11T18:47:26.409Z,8.90
2019-04-11T18:49:56.458Z,8.90
2019-04-11T18:52:28.790Z,8.80
2019-04-11T18:54:58.197Z,8.80
2019-04-11T18:57:28.394Z,8.80
2019-04-11T18:59:58.470Z,8.80
2019-04-11T19:02:28.473Z,8.70
2019-04-11T19:04:58.539Z,8.70
2019-04-11T19:07:28.359Z,8.60
2019-04-11T19:09:58.367Z,8.60
2019-04-11T19:12:28.202Z,8.50
2019-04-11T19:14:58.188Z,8.50
2019-04-11T19:17:30.287Z,8.40
2019-04-11T19:19:59.728Z,8.30
2019-04-11T19:22:37.578Z,8.30
2019-04-11T19:25:01.139Z,8.30
2019-04-11T19:27:31.031Z,8.30
2019-04-11T19:30:00.824Z,8.20
2019-04-11T19:32:30.724Z,8.20
2019-04-11T19:35:00.552Z,8.10
2019-04-11T19:37:30.431Z,8.10
2019-04-11T19:40:00.271Z,8.10
2019-04-11T19:42:30.283Z,8.10
2019-04-11T19:45:02.794Z,8.00
2019-04-11T19:47:31.509Z,8.00
2019-04-11T19:50:01.420Z,8.00
2019-04-11T19:52:32.625Z,7.90
2019-04-11T19:55:16.187Z,7.90
2019-04-11T19:57:46.168Z,7.90
2019-04-11T20:00:15.983Z,7.80
2019-04-11T20:02:45.876Z,7.80
2019-04-11T20:05:15.887Z,7.70
2019-04-11T20:07:45.699Z,7.70
2019-04-11T20:10:15.553Z,7.70
2019-04-11T20:12:45.557Z,7.60
2019-04-11T20:15:15.555Z,7.60
2019-04-11T20:17:45.469Z,7.50
2019-04-11T20:20:15.225Z,7.50
2019-04-11T20:22:53.075Z,7.50
2019-04-11T20:28:52.386Z,7.40
2019-04-11T20:31:22.286Z,7.40
2019-04-11T20:33:52.485Z,7.30
2019-04-11T20:36:32.746Z,7.30
2019-04-11T20:38:54.038Z,7.20
2019-04-11T20:41:24.354Z,7.20
2019-04-11T20:43:56.889Z,7.20
2019-04-11T20:46:28.818Z,7.20
2019-04-11T20:48:57.700Z,7.20
2019-04-11T20:51:27.714Z,7.10
2019-04-11T20:53:57.859Z,7.10
2019-04-11T20:56:27.894Z,7.00
2019-04-11T20:58:57.966Z,7.00
2019-04-11T21:01:27.780Z,7.00
2019-04-11T21:04:00.154Z,7.00
2019-04-11T21:06:31.625Z,6.90
2019-04-11T21:09:03.151Z,6.90
2019-04-11T21:11:36.483Z,6.90
2019-04-11T21:14:03.835Z,6.80
2019-04-11T21:16:33.825Z,6.80
2019-04-11T21:19:03.835Z,6.70
2019-04-11T21:21:33.823Z,6.70
2019-04-11T21:24:03.699Z,6.60
2019-04-11T21:30:45.331Z,6.50
2019-04-11T21:33:15.198Z,6.40
2019-04-11T21:35:45.172Z,6.40
2019-04-11T21:38:15.061Z,6.40
2019-04-11T21:44:17.003Z,6.30
2019-04-11T21:46:49.188Z,6.10
2019-04-11T21:49:18.284Z,6.10
2019-04-11T21:51:48.129Z,6.10
2019-04-11T21:54:17.816Z,6.10
2019-04-11T21:56:49.578Z,6.00
2019-04-11T21:59:20.502Z,6.00
2019-04-11T22:01:53.924Z,6.00
2019-04-11T22:04:26.926Z,5.90
2019-04-11T22:06:54.650Z,5.80
2019-04-11T22:09:24.490Z,5.80
2019-04-11T22:11:54.298Z,5.70
2019-04-11T22:14:24.401Z,5.70
2019-04-11T22:16:55.057Z,5.60
2019-04-11T22:19:25.233Z,5.60
2019-04-11T22:21:55.222Z,5.60
2019-04-11T22:24:25.174Z,5.60
2019-04-11T22:26:54.938Z,5.60
2019-04-11T22:29:25.542Z,5.60
2019-04-11T22:31:56.467Z,5.60
2019-04-11T22:34:44.963Z,5.60
2019-04-11T22:37:14.680Z,5.60
2019-04-11T22:39:44.536Z,5.50
2019-04-11T22:42:14.364Z,5.50
2019-04-11T22:44:44.304Z,5.50
2019-04-11T22:47:14.027Z,5.50
2019-04-11T22:49:43.974Z,5.50
2019-04-11T22:52:13.997Z,5.50
2019-04-11T22:54:43.900Z,5.50
2019-04-11T22:57:13.723Z,5.50
2019-04-11T22:59:44.937Z,5.50
2019-04-11T23:02:47.433Z,5.50
2019-04-11T23:05:17.989Z,5.50
2019-04-11T23:07:48.340Z,5.50
2019-04-11T23:10:19.077Z,5.50
2019-04-11T23:12:48.812Z,5.50
2019-04-11T23:15:18.674Z,5.50
2019-04-11T23:17:48.484Z,5.50
2019-04-11T23:20:18.462Z,5.50
2019-04-11T23:22:48.192Z,5.40
2019-04-11T23:25:18.067Z,5.50
2019-04-11T23:27:48.146Z,5.50
2019-04-11T23:30:18.371Z,5.40
2019-04-11T23:32:51.159Z,5.50
2019-04-11T23:35:21.289Z,5.40
2019-04-11T23:37:52.157Z,5.40
2019-04-11T23:40:22.790Z,5.40
2019-04-11T23:42:52.732Z,5.40
2019-04-11T23:45:25.644Z,5.40
2019-04-11T23:47:55.748Z,5.40
2019-04-11T23:50:25.968Z,5.40
2019-04-11T23:52:57.955Z,5.40
2019-04-11T23:59:21.053Z,5.40
